createdAt,value
2023-02-01T00:00:14.627Z,94.59
2023-02-01T00:03:06.029Z,94.57
2023-02-01T00:05:35.036Z,94.51
2023-02-01T00:08:04.951Z,94.60
2023-02-01T00:10:34.269Z,94.70
2023-02-01T00:13:04.131Z,94.53
2023-02-01T00:15:34.438Z,94.66
2023-02-01T00:18:03.941Z,94.54
2023-02-01T00:20:33.666Z,94.66
2023-02-01T00:23:02.875Z,94.62
2023-02-01T00:25:33.765Z,94.49
2023-02-01T00:28:03.211Z,94.43
2023-02-01T00:30:32.182Z,94.17
2023-02-01T00:33:01.678Z,94.15
2023-02-01T00:35:30.825Z,94.06
2023-02-01T00:38:00.113Z,93.86
2023-02-01T00:40:29.927Z,93.94
2023-02-01T00:42:59.143Z,94.05
2023-02-01T00:45:30.014Z,93.95
2023-02-01T00:47:59.160Z,93.39
2023-02-01T00:50:30.686Z,93.04
2023-02-01T00:53:00.255Z,93.00
2023-02-01T00:55:30.245Z,93.01
2023-02-01T00:57:59.249Z,92.63
2023-02-01T01:00:30.103Z,91.94
2023-02-01T01:02:59.844Z,91.60
2023-02-01T01:05:29.814Z,91.33
2023-02-01T01:07:58.627Z,91.35
2023-02-01T01:10:30.088Z,91.32
2023-02-01T01:12:59.118Z,91.21
2023-02-01T01:15:30.528Z,91.20
2023-02-01T01:17:59.396Z,90.89
2023-02-01T01:20:30.407Z,91.06
2023-02-01T01:22:59.659Z,91.12
2023-02-01T01:25:30.007Z,91.09
2023-02-01T01:27:59.332Z,91.13
2023-02-01T01:30:32.862Z,91.39
2023-02-01T01:33:02.028Z,91.37
2023-02-01T01:35:32.851Z,91.44
2023-02-01T01:38:02.717Z,91.42
2023-02-01T01:40:32.136Z,91.31
2023-02-01T01:43:01.315Z,90.92
2023-02-01T01:45:32.949Z,90.91
2023-02-01T01:48:06.753Z,90.83
2023-02-01T01:50:40.596Z,90.65
2023-02-01T01:53:14.297Z,90.55
2023-02-01T01:55:46.728Z,90.39
2023-02-01T01:58:24.627Z,90.24
2023-02-01T02:00:54.872Z,90.06
2023-02-01T02:03:28.788Z,89.91
2023-02-01T02:06:00.519Z,89.96
2023-02-01T02:08:32.995Z,89.89
2023-02-01T02:11:02.626Z,89.86
2023-02-01T02:13:37.447Z,89.77
2023-02-01T02:16:28.121Z,89.70
2023-02-01T02:19:12.613Z,89.55
2023-02-01T02:22:06.244Z,89.49
2023-02-01T02:24:53.450Z,89.24
2023-02-01T02:27:30.065Z,89.08
2023-02-01T02:30:36.461Z,89.14
2023-02-01T02:33:41.756Z,89.00
2023-02-01T02:36:16.819Z,88.86
2023-02-01T02:38:54.820Z,88.80
2023-02-01T02:41:51.511Z,88.65
2023-02-01T02:44:45.560Z,88.82
2023-02-01T02:47:29.860Z,88.88
2023-02-01T02:50:29.150Z,88.80
2023-02-01T02:53:21.609Z,88.77
2023-02-01T02:55:53.209Z,88.82
2023-02-01T02:58:42.079Z,88.81
2023-02-01T03:01:29.806Z,88.87
2023-02-01T03:04:09.583Z,88.92
2023-02-01T03:06:40.532Z,88.92
2023-02-01T03:09:19.048Z,89.01
2023-02-01T03:12:10.553Z,89.04
2023-02-01T03:14:46.877Z,89.13
2023-02-01T03:17:22.143Z,89.29
2023-02-01T03:19:53.496Z,89.21
2023-02-01T03:22:28.304Z,89.25
2023-02-01T03:25:03.021Z,89.25
2023-02-01T03:27:33.796Z,89.54
2023-02-01T03:30:07.127Z,89.59
2023-02-01T03:32:52.064Z,89.96
2023-02-01T03:35:27.449Z,90.16
2023-02-01T03:38:06.206Z,90.27
2023-02-01T03:40:42.679Z,90.48
2023-02-01T03:43:15.689Z,90.40
2023-02-01T03:45:49.849Z,90.29
2023-02-01T03:48:23.220Z,90.31
2023-02-01T03:50:57.333Z,90.03
2023-02-01T03:53:30.489Z,89.94
2023-02-01T03:55:59.801Z,89.95
2023-02-01T03:58:30.317Z,89.90
2023-02-01T04:01:01.438Z,89.77
2023-02-01T04:03:32.704Z,89.68
2023-02-01T04:06:01.648Z,89.61
2023-02-01T04:08:31.337Z,89.47
2023-02-01T04:11:03.177Z,89.26
2023-02-01T04:13:31.922Z,89.25
2023-02-01T04:16:01.017Z,89.06
2023-02-01T04:18:30.757Z,88.86
2023-02-01T04:20:59.742Z,88.68
2023-02-01T04:23:32.339Z,88.47
2023-02-01T04:26:03.057Z,88.60
2023-02-01T04:28:32.401Z,88.59
2023-02-01T04:31:01.459Z,88.54
2023-02-01T04:33:30.974Z,88.57
2023-02-01T04:36:00.401Z,88.30
2023-02-01T04:38:29.956Z,88.37
2023-02-01T04:40:59.535Z,88.37
2023-02-01T04:43:31.045Z,88.31
2023-02-01T04:46:01.042Z,88.24
2023-02-01T04:48:32.905Z,88.14
2023-02-01T04:51:01.934Z,87.97
2023-02-01T04:53:31.122Z,87.84
2023-02-01T04:56:00.022Z,87.77
2023-02-01T04:58:30.020Z,87.76
2023-02-01T05:01:00.368Z,87.74
2023-02-01T05:03:29.732Z,87.54
2023-02-01T05:05:58.736Z,87.58
2023-02-01T05:08:29.247Z,87.61
2023-02-01T05:10:59.272Z,87.48
2023-02-01T05:13:48.089Z,87.22
2023-02-01T05:16:20.232Z,87.43
2023-02-01T05:18:49.560Z,87.29
2023-02-01T05:21:19.729Z,87.36
2023-02-01T05:24:06.907Z,87.36
2023-02-01T05:26:37.007Z,87.25
2023-02-01T05:29:07.523Z,87.17
2023-02-01T05:31:37.637Z,87.18
2023-02-01T05:34:07.367Z,87.27
2023-02-01T05:36:36.410Z,87.28
2023-02-01T05:39:05.920Z,87.21
2023-02-01T05:41:35.016Z,87.28
2023-02-01T05:44:04.657Z,87.49
2023-02-01T05:46:34.999Z,87.31
2023-02-01T05:49:04.278Z,87.21
2023-02-01T05:51:34.060Z,87.13
2023-02-01T05:54:05.330Z,87.28
2023-02-01T05:56:34.739Z,87.36
2023-02-01T05:59:03.807Z,87.55
2023-02-01T06:01:36.480Z,87.55
2023-02-01T06:04:06.183Z,87.66
2023-02-01T06:06:37.239Z,87.73
2023-02-01T06:09:06.794Z,87.84
2023-02-01T06:11:36.153Z,87.73
2023-02-01T06:14:08.512Z,87.73
2023-02-01T06:16:37.652Z,87.70
2023-02-01T06:19:07.576Z,87.68
2023-02-01T06:21:38.590Z,87.56
2023-02-01T06:24:09.858Z,87.57
2023-02-01T06:26:40.627Z,87.45
2023-02-01T06:29:12.361Z,87.50
2023-02-01T06:31:43.538Z,87.54
2023-02-01T06:34:12.810Z,87.47
2023-02-01T06:36:42.103Z,87.37
2023-02-01T06:39:16.311Z,87.35
2023-02-01T06:41:48.096Z,87.26
2023-02-01T06:44:19.630Z,87.14
2023-02-01T06:46:48.886Z,87.10
2023-02-01T06:49:19.044Z,87.01
2023-02-01T06:51:48.676Z,86.70
2023-02-01T06:54:18.164Z,86.67
2023-02-01T06:56:48.026Z,86.68
2023-02-01T06:59:17.533Z,86.65
2023-02-01T07:01:49.278Z,86.64
2023-02-01T07:04:19.029Z,86.34
2023-02-01T07:06:48.115Z,86.14
2023-02-01T07:09:17.417Z,86.12
2023-02-01T07:11:46.706Z,86.17
2023-02-01T07:14:16.537Z,86.29
2023-02-01T07:16:45.974Z,86.15
2023-02-01T07:19:15.567Z,86.11
2023-02-01T07:21:44.848Z,86.20
2023-02-01T07:24:15.256Z,86.14
2023-02-01T07:26:45.293Z,85.90
2023-02-01T07:29:15.138Z,85.89
2023-02-01T07:31:46.018Z,85.66
2023-02-01T07:34:15.347Z,85.58
2023-02-01T07:36:44.525Z,85.21
2023-02-01T07:39:13.991Z,85.48
2023-02-01T07:41:43.566Z,85.37
2023-02-01T07:44:15.695Z,85.12
2023-02-01T07:46:45.257Z,85.48
2023-02-01T07:49:14.508Z,85.56
2023-02-01T07:51:44.771Z,85.36
2023-02-01T07:54:14.066Z,85.03
2023-02-01T07:56:43.574Z,85.22
2023-02-01T07:59:12.702Z,85.36
2023-02-01T08:01:42.046Z,84.89
2023-02-01T08:04:13.645Z,84.50
2023-02-01T08:06:43.030Z,84.81
2023-02-01T08:09:12.933Z,84.85
2023-02-01T08:11:41.904Z,84.81
2023-02-01T08:14:10.899Z,84.62
2023-02-01T08:16:40.200Z,84.82
2023-02-01T08:19:09.229Z,84.77
2023-02-01T08:21:38.259Z,84.85
2023-02-01T08:24:09.993Z,84.52
2023-02-01T08:26:39.128Z,84.53
2023-02-01T08:29:11.043Z,84.12
2023-02-01T08:31:42.220Z,84.25
2023-02-01T08:34:12.891Z,84.28
2023-02-01T08:36:41.927Z,84.36
2023-02-01T08:39:12.254Z,84.43
2023-02-01T08:41:42.845Z,84.38
2023-02-01T08:44:12.176Z,84.02
2023-02-01T08:46:41.375Z,84.31
2023-02-01T08:49:10.333Z,84.73
2023-02-01T08:51:39.366Z,84.64
2023-02-01T08:54:08.435Z,84.04
2023-02-01T08:56:42.038Z,84.23
2023-02-01T08:59:11.792Z,84.19
2023-02-01T09:01:41.191Z,83.93
2023-02-01T09:04:10.283Z,84.10
2023-02-01T09:06:42.440Z,83.23
2023-02-01T09:09:11.698Z,82.79
2023-02-01T09:11:40.994Z,82.69
2023-02-01T09:14:09.979Z,83.25
2023-02-01T09:16:39.347Z,83.09
2023-02-01T09:19:24.814Z,83.62
2023-02-01T09:21:56.016Z,83.61
2023-02-01T09:24:25.150Z,83.29
2023-02-01T09:26:54.666Z,83.11
2023-02-01T09:29:23.652Z,83.37
2023-02-01T09:32:02.825Z,82.67
2023-02-01T09:34:35.640Z,81.98
2023-02-01T09:37:04.743Z,81.30
2023-02-01T09:39:34.948Z,81.68
2023-02-01T09:42:17.692Z,81.51
2023-02-01T09:45:14.834Z,82.26
2023-02-01T09:47:51.695Z,81.51
2023-02-01T09:50:29.455Z,81.70
2023-02-01T09:53:03.916Z,81.08
2023-02-01T09:55:40.906Z,81.84
2023-02-01T09:58:17.595Z,81.51
2023-02-01T10:00:54.550Z,81.65
2023-02-01T10:03:28.523Z,80.86
2023-02-01T10:06:25.782Z,80.09
2023-02-01T10:09:15.364Z,79.31
2023-02-01T10:11:57.493Z,78.27
2023-02-01T10:14:45.259Z,78.26
2023-02-01T10:17:29.393Z,79.58
2023-02-01T10:20:11.183Z,78.75
2023-02-01T10:23:19.458Z,78.72
2023-02-01T10:25:43.788Z,78.89
2023-02-01T10:28:17.193Z,80.14
2023-02-01T10:30:48.030Z,79.74
2023-02-01T10:33:19.911Z,80.34
2023-02-01T10:35:54.909Z,79.38
2023-02-01T10:38:28.758Z,79.73
2023-02-01T10:41:02.850Z,79.89
2023-02-01T10:43:34.391Z,80.67
2023-02-01T10:46:04.068Z,80.04
2023-02-01T10:48:34.640Z,79.88
2023-02-01T10:51:13.377Z,79.90
2023-02-01T10:53:47.023Z,80.80
2023-02-01T10:56:22.191Z,80.40
2023-02-01T10:58:52.000Z,81.35
2023-02-01T11:01:25.478Z,81.16
2023-02-01T11:03:58.610Z,81.35
2023-02-01T11:06:33.595Z,81.16
2023-02-01T11:09:17.282Z,81.52
2023-02-01T11:11:57.729Z,82.12
2023-02-01T11:14:39.610Z,81.60
2023-02-01T11:17:34.228Z,79.80
2023-02-01T11:20:13.873Z,78.16
2023-02-01T11:22:49.237Z,77.85
2023-02-01T11:25:19.440Z,78.00
2023-02-01T11:27:55.273Z,78.00
2023-02-01T11:30:34.123Z,78.46
2023-02-01T11:33:10.262Z,79.33
2023-02-01T11:35:41.809Z,79.21
2023-02-01T11:38:28.199Z,79.01
2023-02-01T11:41:12.393Z,79.03
2023-02-01T11:43:57.062Z,78.81
2023-02-01T11:46:33.767Z,79.93
2023-02-01T11:49:21.789Z,78.29
2023-02-01T11:52:06.429Z,78.19
2023-02-01T11:54:41.838Z,77.48
2023-02-01T11:57:29.096Z,77.41
2023-02-01T12:00:10.003Z,76.92
2023-02-01T12:03:06.324Z,76.44
2023-02-01T12:05:47.372Z,76.82
2023-02-01T12:08:42.045Z,76.60
2023-02-01T12:11:27.976Z,78.19
2023-02-01T12:14:07.797Z,78.37
2023-02-01T12:16:47.100Z,78.66
2023-02-01T12:19:37.971Z,78.82
2023-02-01T12:22:25.176Z,80.00
2023-02-01T12:25:20.887Z,80.59
2023-02-01T12:28:15.911Z,80.96
2023-02-01T12:31:13.838Z,81.57
2023-02-01T12:33:56.870Z,82.14
2023-02-01T12:36:41.583Z,82.52
2023-02-01T12:39:18.293Z,82.46
2023-02-01T12:41:55.011Z,82.73
2023-02-01T12:44:39.457Z,82.47
2023-02-01T12:47:13.486Z,82.31
2023-02-01T12:49:53.492Z,82.42
2023-02-01T12:52:35.534Z,82.64
2023-02-01T12:55:17.247Z,82.85
2023-02-01T12:57:51.301Z,82.91
2023-02-01T13:00:33.192Z,82.99
2023-02-01T13:03:12.633Z,82.90
2023-02-01T13:05:50.294Z,82.74
2023-02-01T13:08:24.193Z,82.75
2023-02-01T13:10:59.654Z,82.51
2023-02-01T13:13:34.954Z,82.29
2023-02-01T13:16:19.348Z,82.23
2023-02-01T13:18:53.488Z,82.21
2023-02-01T13:21:31.716Z,82.34
2023-02-01T13:24:01.114Z,82.22
2023-02-01T13:26:30.890Z,82.33
2023-02-01T13:29:03.861Z,82.30
2023-02-01T13:31:56.722Z,82.23
2023-02-01T13:34:50.892Z,82.09
2023-02-01T13:37:37.365Z,82.59
2023-02-01T13:40:28.972Z,82.84
2023-02-01T13:43:01.143Z,82.82
2023-02-01T13:45:34.180Z,82.81
2023-02-01T13:48:08.345Z,82.94
2023-02-01T13:50:41.367Z,82.99
2023-02-01T13:53:22.818Z,83.10
2023-02-01T13:55:59.029Z,83.10
2023-02-01T13:58:37.139Z,83.35
2023-02-01T14:01:36.210Z,83.51
2023-02-01T14:04:08.943Z,83.64
2023-02-01T14:06:47.443Z,83.85
2023-02-01T14:09:37.693Z,83.97
2023-02-01T14:12:46.239Z,84.12
2023-02-01T14:15:28.778Z,84.27
2023-02-01T14:17:59.904Z,84.34
2023-02-01T14:20:51.841Z,84.25
2023-02-01T14:23:35.938Z,84.12
2023-02-01T14:26:13.532Z,84.07
2023-02-01T14:28:54.722Z,84.02
2023-02-01T14:31:48.820Z,83.97
2023-02-01T14:34:23.030Z,83.98
2023-02-01T14:36:58.343Z,84.00
2023-02-01T14:39:36.376Z,84.09
2023-02-01T14:42:20.430Z,84.07
2023-02-01T14:44:59.463Z,84.02
2023-02-01T14:47:35.982Z,84.06
2023-02-01T14:50:29.087Z,83.98
2023-02-01T14:53:15.263Z,83.84
2023-02-01T14:55:49.254Z,83.83
2023-02-01T14:58:33.219Z,83.84
2023-02-01T15:01:05.136Z,83.83
2023-02-01T15:03:46.872Z,83.79
2023-02-01T15:06:31.972Z,83.79
2023-02-01T15:09:04.929Z,83.87
2023-02-01T15:11:56.065Z,83.86
2023-02-01T15:14:27.810Z,84.04
2023-02-01T15:16:57.609Z,84.00
2023-02-01T15:19:31.722Z,84.00
2023-02-01T15:22:03.524Z,84.04
2023-02-01T15:24:34.688Z,84.07
2023-02-01T15:27:07.564Z,84.14
2023-02-01T15:29:39.769Z,84.08
2023-02-01T15:32:30.884Z,84.34
2023-02-01T15:35:01.804Z,84.48
2023-02-01T15:37:31.749Z,84.32
2023-02-01T15:40:22.345Z,84.36
2023-02-01T15:42:55.429Z,84.56
2023-02-01T15:45:28.617Z,84.49
2023-02-01T15:48:00.259Z,84.58
2023-02-01T15:50:40.676Z,84.71
2023-02-01T15:53:19.152Z,84.83
2023-02-01T15:55:52.447Z,85.17
2023-02-01T15:58:23.834Z,85.34
2023-02-01T16:00:54.951Z,85.32
2023-02-01T16:03:41.635Z,85.64
2023-02-01T16:06:12.745Z,86.15
2023-02-01T16:08:54.487Z,86.09
2023-02-01T16:11:30.065Z,86.41
2023-02-01T16:14:03.003Z,86.08
2023-02-01T16:16:35.904Z,86.28
2023-02-01T16:19:05.515Z,86.27
2023-02-01T16:21:34.752Z,86.54
2023-02-01T16:24:08.435Z,86.77
2023-02-01T16:26:38.814Z,86.84
2023-02-01T16:29:09.486Z,86.78
2023-02-01T16:31:45.813Z,86.84
2023-02-01T16:34:21.908Z,86.75
2023-02-01T16:36:52.791Z,86.40
2023-02-01T16:39:22.187Z,86.31
2023-02-01T16:41:51.664Z,86.25
2023-02-01T16:44:20.726Z,86.31
2023-02-01T16:46:50.319Z,86.65
2023-02-01T16:49:23.241Z,86.36
2023-02-01T16:51:56.539Z,86.34
2023-02-01T16:54:27.920Z,86.64
2023-02-01T16:56:56.984Z,86.68
2023-02-01T16:59:26.187Z,87.09
2023-02-01T17:01:56.199Z,86.96
2023-02-01T17:04:25.773Z,87.01
2023-02-01T17:06:56.173Z,87.00
2023-02-01T17:09:25.956Z,86.81
2023-02-01T17:11:55.857Z,86.90
2023-02-01T17:14:25.521Z,86.97
2023-02-01T17:16:56.089Z,86.83
2023-02-01T17:19:25.619Z,86.79
2023-02-01T17:21:59.058Z,86.90
2023-02-01T17:24:46.431Z,86.91
2023-02-01T17:27:18.184Z,86.87
2023-02-01T17:29:47.909Z,86.84
2023-02-01T17:32:20.177Z,86.66
2023-02-01T17:34:51.256Z,86.70
2023-02-01T17:37:25.426Z,86.70
2023-02-01T17:40:02.109Z,86.82
2023-02-01T17:42:38.037Z,86.64
2023-02-01T17:45:22.583Z,86.72
2023-02-01T17:47:52.113Z,86.69
2023-02-01T17:50:22.695Z,86.67
2023-02-01T17:52:52.664Z,86.58
2023-02-01T17:55:26.480Z,86.41
2023-02-01T17:57:58.907Z,86.45
2023-02-01T18:00:31.734Z,86.42
2023-02-01T18:03:03.204Z,86.41
2023-02-01T18:05:39.060Z,86.40
2023-02-01T18:08:09.724Z,86.34
2023-02-01T18:10:38.715Z,86.22
2023-02-01T18:13:09.721Z,86.20
2023-02-01T18:15:39.618Z,86.18
2023-02-01T18:18:09.382Z,86.09
2023-02-01T18:20:44.757Z,86.29
2023-02-01T18:23:18.447Z,86.40
2023-02-01T18:25:48.127Z,86.29
2023-02-01T18:28:17.799Z,86.47
2023-02-01T18:30:50.449Z,86.63
2023-02-01T18:33:20.919Z,86.47
2023-02-01T18:35:50.339Z,86.56
2023-02-01T18:38:19.333Z,86.47
2023-02-01T18:40:52.910Z,86.58
2023-02-01T18:43:22.232Z,86.38
2023-02-01T18:45:51.658Z,86.59
2023-02-01T18:48:23.882Z,86.76
2023-02-01T18:50:57.010Z,86.89
2023-02-01T18:53:29.546Z,86.76
2023-02-01T18:55:59.557Z,86.70
2023-02-01T18:58:31.813Z,86.67
2023-02-01T19:01:08.898Z,86.64
2023-02-01T19:03:42.984Z,86.64
2023-02-01T19:06:15.731Z,86.71
2023-02-01T19:08:47.609Z,86.78
2023-02-01T19:11:19.043Z,86.66
2023-02-01T19:13:51.720Z,86.78
2023-02-01T19:16:21.221Z,87.12
2023-02-01T19:18:53.264Z,87.16
2023-02-01T19:21:23.017Z,87.34
2023-02-01T19:23:52.596Z,87.71
2023-02-01T19:26:22.147Z,87.99
2023-02-01T19:28:51.222Z,88.09
2023-02-01T19:31:20.558Z,88.11
2023-02-01T19:33:49.628Z,88.17
2023-02-01T19:36:19.190Z,88.37
2023-02-01T19:38:48.167Z,88.54
2023-02-01T19:41:17.506Z,88.68
2023-02-01T19:43:46.973Z,88.47
2023-02-01T19:46:16.229Z,88.74
2023-02-01T19:48:45.034Z,88.70
2023-02-01T19:51:14.138Z,88.49
2023-02-01T19:53:43.293Z,88.63
2023-02-01T19:56:12.595Z,88.43
2023-02-01T19:58:41.879Z,88.61
2023-02-01T20:01:11.131Z,88.54
2023-02-01T20:03:40.048Z,88.56
2023-02-01T20:06:09.395Z,88.77
2023-02-01T20:08:38.411Z,88.66
2023-02-01T20:11:08.565Z,88.83
2023-02-01T20:13:38.145Z,89.20
2023-02-01T20:16:07.744Z,88.89
2023-02-01T20:18:37.028Z,88.71
2023-02-01T20:21:06.691Z,88.56
2023-02-01T20:23:36.548Z,88.67
2023-02-01T20:26:09.023Z,88.57
2023-02-01T20:28:38.526Z,88.53
2023-02-01T20:31:10.364Z,88.57
2023-02-01T20:33:39.606Z,88.63
2023-02-01T20:36:10.149Z,88.68
2023-02-01T20:38:39.418Z,88.66
2023-02-01T20:41:10.097Z,88.72
2023-02-01T20:43:38.969Z,88.62
2023-02-01T20:46:09.208Z,88.52
2023-02-01T20:48:42.164Z,88.49
2023-02-01T20:51:12.688Z,88.56
2023-02-01T20:53:43.565Z,88.59
2023-02-01T20:56:14.063Z,88.50
2023-02-01T20:58:44.025Z,88.46
2023-02-01T21:01:13.657Z,88.39
2023-02-01T21:03:42.888Z,88.34
2023-02-01T21:06:13.134Z,88.37
2023-02-01T21:08:42.425Z,88.29
2023-02-01T21:11:15.461Z,88.43
2023-02-01T21:13:50.057Z,88.31
2023-02-01T21:16:19.165Z,88.41
2023-02-01T21:18:51.653Z,88.41
2023-02-01T21:21:21.357Z,88.23
2023-02-01T21:23:52.285Z,88.51
2023-02-01T21:26:22.982Z,88.47
2023-02-01T21:28:53.739Z,88.45
2023-02-01T21:31:25.507Z,88.33
2023-02-01T21:33:56.347Z,88.47
2023-02-01T21:36:25.837Z,88.52
2023-02-01T21:39:03.552Z,88.49
2023-02-01T21:41:52.858Z,88.32
2023-02-01T21:44:23.064Z,88.31
2023-02-01T21:46:52.525Z,88.28
2023-02-01T21:49:21.930Z,88.40
2023-02-01T21:51:52.013Z,88.46
2023-02-01T21:54:21.511Z,88.54
2023-02-01T21:56:50.809Z,88.61
2023-02-01T21:59:20.069Z,88.58
2023-02-01T22:01:49.688Z,88.47
2023-02-01T22:04:18.984Z,88.45
2023-02-01T22:06:48.271Z,88.59
2023-02-01T22:09:19.925Z,88.55
2023-02-01T22:11:50.275Z,88.55
2023-02-01T22:14:20.214Z,88.50
2023-02-01T22:16:49.842Z,88.49
2023-02-01T22:19:19.390Z,88.46
2023-02-01T22:21:49.300Z,88.50
2023-02-01T22:24:20.520Z,88.43
2023-02-01T22:26:50.774Z,88.38
2023-02-01T22:29:19.996Z,88.44
2023-02-01T22:31:49.454Z,88.44
2023-02-01T22:34:19.168Z,88.48
2023-02-01T22:36:48.783Z,88.56
2023-02-01T22:39:18.114Z,88.71
2023-02-01T22:41:47.167Z,88.90
2023-02-01T22:44:16.399Z,88.96
2023-02-01T22:46:45.624Z,89.03
2023-02-01T22:49:14.992Z,89.06
2023-02-01T22:51:43.966Z,89.17
2023-02-01T22:54:17.560Z,89.59
2023-02-01T22:56:47.204Z,89.52
2023-02-01T22:59:16.764Z,89.49
2023-02-01T23:01:46.357Z,89.74
2023-02-01T23:04:16.881Z,89.74
2023-02-01T23:06:45.935Z,89.85
2023-02-01T23:09:17.846Z,90.00
2023-02-01T23:11:47.307Z,89.97
2023-02-01T23:14:17.205Z,90.16
2023-02-01T23:16:48.015Z,90.54
2023-02-01T23:19:19.788Z,90.75
2023-02-01T23:21:49.560Z,91.05
2023-02-01T23:24:18.767Z,91.16
2023-02-01T23:26:47.916Z,91.48
2023-02-01T23:29:18.648Z,91.49
2023-02-01T23:31:47.730Z,91.69
2023-02-01T23:34:16.877Z,91.91
2023-02-01T23:36:45.772Z,91.99
2023-02-01T23:39:14.801Z,91.97
2023-02-01T23:41:43.708Z,92.14
2023-02-01T23:44:12.737Z,92.11
2023-02-01T23:46:47.154Z,92.41
2023-02-01T23:49:18.386Z,92.31
2023-02-01T23:51:52.230Z,92.52
2023-02-01T23:54:22.793Z,92.44
2023-02-01T23:56:51.718Z,92.45
2023-02-01T23:59:22.089Z,92.45
